Airfield :
LOGIN :

Register | Disclaimer

   EN    FR    IT 

 










Legend :    VFR   Marginal VFR   IFR   Intensive IFR   Very Intensive IFR
Visi :
Ceiling :
>= 8 km
>= 3000ft
5 to 8 km
1000 to 3000 ft
1500m to 5 km
500 to 1000 ft
800 to 1500m
200 to 500 ft
< 800m
< 200 ft
Symbols :   Thunderstorms  Fog  Heavy snow  Heavy precipitations  Wind > 20 kt
SIGMETs :     Misc.  Thunderstorms  Icing  Turbulence  Mountain Waves  Volcanic Ashes






- Airport Elevation : 479 ft
- IATA code : DOL


LFRG - Deauville

CURRENT METAR :
  • 231800Z AUTO 08008KT 050V120 9999 ///CB 24/14 Q1008 TEMPO VRB15G35KT 2000 TSRAGR

EXPIRED METARs :
  • 231730Z AUTO 07006KT 030V120 CAVOK 25/14 Q1008 TEMPO VRB15G35KT 2000 TSRAGR BKN020CB
  • 231700Z AUTO 07009KT 030V120 CAVOK 25/14 Q1009 TEMPO VRB15G35KT 2000 TSRAGR BKN020CB
  • 231630Z AUTO 07008KT 020V110 CAVOK 25/14 Q1009 TEMPO VRB15G35KT 2000 TSRAGR BKN020CB
  • 231600Z AUTO 06007KT 010V110 9999 ///TCU 25/15 Q1010 TEMPO VRB15G35KT 2000 TSRAGR BKN020CB
  • 231530Z AUTO 05006KT 340V090 CAVOK 25/15 Q1010 TEMPO VRB15G35KT 2000 TSRAGR BKN020CB

TAF TAF LFRG
Valid from the 23 at 15:00 until the 24 at 00:00 UTC


231400Z 2315/2324 09012KT CAVOK
TEMPO 2315/2324 4000 TSRA BKN040CB
PROB40
TEMPO 2316/2321 VRB15G35KT 2000 TSRAGR BKN020CB
BECMG 2321/2324 22010KT
ATIS : +33 2 31 65 65 36



MET'MAP, your aeronautical weather chart ! - Copyright ORBIFLY December 2007 - Disclaimer

ORBIFLY MET'MAP TEAM :

Programming & Development : Alexandra Zaïnal
Concept & original design : Baudouin d'Aumeries
Assistance for programming : Marc-Olivier Méhu
Technical & hardware support : Manuel Goepfert

Contact : metmap@orbifly.com




SOURCES & CREDITS :

   NOAA